Time;durP1;ratioP1;P1;durP2;ratioP2;P2;SDS_P1;SDS_P2;PMS_P1;PMS_P2;Temp;Humidity;BMP_temperature;BMP_pressure;BME280_temperature;BME280_humidity;BME280_pressure;Samples;Min_cycle;Max_cycle;Signal;HPM_P1;HPM_P2
2023/12/07 00:00:37;;;;;;;95.55;43.25;;;;;;;2.07;88.33;97341.06;10368341;28;20035;-49
2023/12/07 00:05:36;;;;;;;93.28;41.17;;;;;;;2.63;88.11;97437.16;10368019;28;20037;-49
2023/12/07 00:10:35;;;;;;;85.28;37.38;;;;;;;2.49;87.99;97429.13;10367231;28;20123;-48
2023/12/07 00:15:34;;;;;;;92.18;42.17;;;;;;;2.63;87.74;97452.53;10367058;28;20063;-48
2023/12/07 00:20:33;;;;;;;100.80;41.53;;;;;;;2.22;87.68;97450.66;10364718;28;20179;-49
2023/12/07 00:25:32;;;;;;;106.20;43.15;;;;;;;1.67;88.34;97378.38;10368696;28;20036;-49
2023/12/07 00:30:32;;;;;;;97.30;38.35;;;;;;;0.87;88.76;97256.00;10368391;28;20712;-49
2023/12/07 00:35:31;;;;;;;100.78;39.08;;;;;;;1.90;88.79;97427.63;10367756;28;20479;-49
2023/12/07 00:40:29;;;;;;;134.07;41.38;;;;;;;1.92;89.18;97435.31;10368272;28;20475;-49
2023/12/07 00:45:28;;;;;;;135.10;43.42;;;;;;;1.98;89.32;97455.97;10368691;28;20127;-51
2023/12/07 00:50:27;;;;;;;128.95;40.38;;;;;;;1.86;89.18;97435.16;10367937;28;20048;-48
2023/12/07 00:55:26;;;;;;;121.63;37.08;;;;;;;1.81;89.30;97446.94;10367463;28;20048;-49
2023/12/07 01:00:25;;;;;;;155.00;41.38;;;;;;;1.70;90.24;97457.75;10368193;28;20545;-49
2023/12/07 01:05:24;;;;;;;100.43;35.13;;;;;;;1.69;90.08;97458.56;10367114;28;21177;-48
2023/12/07 01:10:23;;;;;;;106.10;34.70;;;;;;;0.35;90.01;97239.09;10367332;28;20571;-49
2023/12/07 01:15:22;;;;;;;88.82;37.30;;;;;;;1.62;90.70;97461.78;10366842;28;20646;-49
2023/12/07 01:20:21;;;;;;;77.65;36.10;;;;;;;1.75;91.04;97443.38;10367424;28;20052;-49
2023/12/07 01:25:21;;;;;;;89.57;36.78;;;;;;;2.04;90.18;97462.94;10366597;28;20148;-49
2023/12/07 01:30:20;;;;;;;109.63;39.95;;;;;;;2.17;90.04;97457.34;10366233;28;20062;-49
2023/12/07 01:35:19;;;;;;;87.30;37.97;;;;;;;2.45;89.72;97484.53;10366440;28;20029;-49
2023/12/07 01:40:20;;;;;;;83.35;36.88;;;;;;;2.20;89.45;97407.91;10367331;28;20510;-50
2023/12/07 01:45:20;;;;;;;93.03;37.83;;;;;;;2.55;89.49;97480.53;10365101;28;20071;-49
2023/12/07 01:50:23;;;;;;;97.40;41.22;;;;;;;2.73;89.28;97469.91;10366018;28;20467;-49
2023/12/07 01:55:24;;;;;;;110.13;42.35;;;;;;;2.64;89.29;97450.03;10365683;28;20060;-49
2023/12/07 02:00:23;;;;;;;118.50;45.97;;;;;;;2.15;89.23;97388.19;10365492;28;20488;-49
2023/12/07 02:05:24;;;;;;;112.80;42.72;;;;;;;2.65;88.99;97466.25;10365324;28;20151;-50
2023/12/07 02:10:24;;;;;;;80.18;37.35;;;;;;;2.71;88.79;97474.97;10365941;28;20048;-50
2023/12/07 02:15:23;;;;;;;86.32;39.25;;;;;;;2.69;88.88;97450.13;10363908;28;20105;-49
2023/12/07 02:20:35;;;;;;;73.45;37.00;;;;;;;2.91;88.50;97465.22;10363513;28;20069;-49
2023/12/07 02:25:54;;;;;;;91.00;41.05;;;;;;;2.74;88.95;97467.34;10363087;28;20448;-49
2023/12/07 02:30:53;;;;;;;106.43;44.63;;;;;;;2.20;89.02;97420.72;10363190;28;20064;-49
2023/12/07 02:35:52;;;;;;;104.95;44.25;;;;;;;2.11;88.87;97416.22;10363687;28;20416;-49
2023/12/07 02:40:53;;;;;;;103.90;43.25;;;;;;;2.33;88.77;97435.56;10363662;28;20075;-50
2023/12/07 02:45:52;;;;;;;97.18;42.15;;;;;;;2.21;89.12;97441.25;10362924;28;20053;-50
2023/12/07 02:50:51;;;;;;;;;;;;;;;2.29;89.28;97464.47;10364449;28;20144;-49
2023/12/07 02:55:50;;;;;;;85.47;41.45;;;;;;;2.30;88.87;97467.09;10362188;28;19923;-53
2023/12/07 03:00:49;;;;;;;84.32;39.47;;;;;;;2.15;89.25;97443.63;10366110;28;20036;-49
2023/12/07 03:05:48;;;;;;;;;;;;;;;2.37;89.37;97475.78;10351912;28;20076;-50
2023/12/07 03:10:47;;;;;;;94.22;41.50;;;;;;;2.12;89.28;97426.50;10369630;28;19960;-50
2023/12/07 03:15:46;;;;;;;73.35;37.92;;;;;;;2.28;89.07;97450.81;10385048;28;20130;-49
2023/12/07 03:20:45;;;;;;;69.07;32.97;;;;;;;2.43;88.78;97464.84;10369711;28;20468;-49
2023/12/07 03:25:44;;;;;;;68.85;32.92;;;;;;;2.38;88.64;97451.91;10369200;28;20515;-50
2023/12/07 03:30:43;;;;;;;65.57;31.85;;;;;;;2.54;88.60;97473.69;10369256;28;20419;-49
2023/12/07 03:35:42;;;;;;;62.70;31.23;;;;;;;2.75;87.68;97504.13;10368875;28;20136;-49
2023/12/07 03:40:41;;;;;;;56.28;31.15;;;;;;;2.69;87.74;97491.13;10369434;28;20021;-49
2023/12/07 03:45:40;;;;;;;60.65;31.33;;;;;;;2.74;87.88;97482.72;10368221;28;20393;-50
2023/12/07 03:50:38;;;;;;;59.28;29.15;;;;;;;2.92;87.70;97481.47;10368500;28;20116;-49
2023/12/07 03:55:38;;;;;;;54.15;29.73;;;;;;;3.04;87.44;97511.66;10368445;28;20049;-50
2023/12/07 04:00:37;;;;;;;62.67;32.53;;;;;;;2.58;86.57;97421.69;10369108;28;20116;-49
2023/12/07 04:05:37;;;;;;;57.90;31.38;;;;;;;2.81;86.51;97460.69;10367538;28;20040;-48
2023/12/07 04:10:36;;;;;;;64.10;32.97;;;;;;;2.79;86.52;97490.53;10367105;28;20136;-49
2023/12/07 04:15:35;;;;;;;60.95;30.65;;;;;;;2.68;87.57;97512.47;10367347;28;20543;-48
2023/12/07 04:20:34;;;;;;;64.63;31.27;;;;;;;2.42;87.38;97493.81;10367439;28;20559;-48
2023/12/07 04:25:33;;;;;;;66.95;33.55;;;;;;;2.52;87.52;97529.97;10367379;28;20579;-48
2023/12/07 04:30:32;;;;;;;67.40;30.58;;;;;;;2.55;87.47;97518.94;10366893;28;20568;-48
2023/12/07 04:35:31;;;;;;;;;;;;;;;2.64;87.91;97538.81;10366855;28;20156;-48
2023/12/07 04:40:30;;;;;;;65.97;34.00;;;;;;;2.45;88.10;97505.03;10367461;28;19913;-48
2023/12/07 04:45:29;;;;;;;56.75;29.90;;;;;;;2.70;87.65;97537.31;10366027;28;20025;-48
2023/12/07 04:50:28;;;;;;;109.05;60.53;;;;;;;2.76;87.83;97551.94;10366603;28;20032;-48
2023/12/07 04:55:27;;;;;;;69.20;35.78;;;;;;;2.59;87.74;97505.41;10366196;28;20067;-48
2023/12/07 05:00:27;;;;;;;72.07;35.67;;;;;;;2.91;86.80;97559.16;10365951;28;20028;-48
2023/12/07 05:05:26;;;;;;;74.35;36.63;;;;;;;2.65;87.39;97545.66;10365180;28;20500;-48
2023/12/07 05:10:25;;;;;;;60.20;31.75;;;;;;;2.74;87.58;97559.59;10366025;28;20663;-49
2023/12/07 05:15:24;;;;;;;77.57;45.63;;;;;;;2.71;87.72;97549.28;10364919;28;20458;-48
2023/12/07 05:20:24;;;;;;;;;;;;;;;2.94;87.68;97560.13;10365635;28;20136;-48
2023/12/07 05:25:23;;;;;;;84.97;52.57;;;;;;;2.36;86.54;97476.63;10177073;28;20019;-51
2023/12/07 05:30:22;;;;;;;49.25;26.60;;;;;;;2.86;87.44;97573.56;10323691;28;20527;-48
2023/12/07 05:35:21;;;;;;;46.13;24.08;;;;;;;2.68;86.94;97549.19;10290621;28;20049;-48
2023/12/07 05:40:20;;;;;;;47.42;24.45;;;;;;;2.47;86.42;97535.81;10321864;28;20137;-48
2023/12/07 05:45:19;;;;;;;40.63;21.17;;;;;;;2.49;87.09;97536.69;10325676;28;20122;-48
2023/12/07 05:50:18;;;;;;;;;;;;;;;2.90;87.02;97581.38;10323179;28;20496;-48
2023/12/07 05:55:16;;;;;;;45.97;22.40;;;;;;;2.87;86.80;97568.47;10323928;28;20280;-48
2023/12/07 06:00:16;;;;;;;40.67;21.83;;;;;;;2.71;87.18;97539.03;10325590;28;20104;-48
2023/12/07 06:05:15;;;;;;;;;;;;;;;3.12;86.63;97581.91;10325664;28;20060;-48
2023/12/07 06:10:14;;;;;;;45.95;24.75;;;;;;;2.90;86.70;97537.81;10325066;28;19956;-48
2023/12/07 06:15:13;;;;;;;54.60;29.13;;;;;;;3.27;86.23;97590.00;10325094;28;20103;-48
2023/12/07 06:20:12;;;;;;;37.13;19.95;;;;;;;3.04;85.25;97547.53;10324225;28;20365;-48
2023/12/07 06:25:11;;;;;;;35.58;19.30;;;;;;;2.98;85.42;97554.25;10323577;28;20075;-48
2023/12/07 06:30:10;;;;;;;38.38;20.95;;;;;;;2.97;85.66;97562.75;10322141;28;20096;-49
2023/12/07 06:35:12;;;;;;;;;;;;;;;3.16;85.45;97607.66;10326872;28;20071;-48
2023/12/07 06:40:11;;;;;;;37.40;19.92;;;;;;;3.07;85.63;97575.81;10332510;28;19962;-48
2023/12/07 06:45:13;;;;;;;38.60;20.17;;;;;;;3.21;85.37;97595.88;10331900;28;20108;-49
2023/12/07 06:50:13;;;;;;;45.83;24.17;;;;;;;3.16;85.30;97609.38;10331269;28;20057;-50
2023/12/07 06:55:12;;;;;;;49.38;24.92;;;;;;;3.01;85.88;97590.22;10325237;28;20132;-49
2023/12/07 07:00:11;;;;;;;51.85;26.35;;;;;;;3.13;85.57;97614.44;10328757;28;20132;-50
2023/12/07 07:05:11;;;;;;;44.92;22.45;;;;;;;3.17;85.24;97624.81;10327837;28;20120;-49
2023/12/07 07:10:12;;;;;;;46.35;21.23;;;;;;;2.91;85.56;97588.25;10330224;28;20060;-50
2023/12/07 07:15:11;;;;;;;46.95;24.25;;;;;;;3.31;85.28;97622.59;10330454;28;20049;-49
2023/12/07 07:20:10;;;;;;;75.03;39.40;;;;;;;3.35;85.20;97616.69;10329482;28;20045;-49
2023/12/07 07:25:09;;;;;;;;;;;;;;;3.54;84.85;97650.50;10330517;28;20125;-50
2023/12/07 07:30:08;;;;;;;76.65;39.47;;;;;;;3.28;85.17;97598.56;10330079;28;19966;-49
2023/12/07 07:35:07;;;;;;;;;;;;;;;3.59;85.12;97647.25;10328861;28;20061;-49
2023/12/07 07:40:06;;;;;;;60.53;30.63;;;;;;;3.62;85.29;97655.00;10328699;28;20410;-50
2023/12/07 07:45:06;;;;;;;;;;;;;;;3.60;85.00;97643.84;10327929;28;20060;-50
2023/12/07 07:50:06;;;;;;;65.43;34.20;;;;;;;3.76;85.13;97645.09;10328378;28;19967;-50
2023/12/07 07:55:05;;;;;;;67.13;32.80;;;;;;;3.77;85.08;97656.22;10327801;28;20578;-49
2023/12/07 08:00:05;;;;;;;73.40;34.00;;;;;;;3.31;85.34;97557.59;10328327;28;20500;-50
2023/12/07 08:05:04;;;;;;;63.17;33.67;;;;;;;3.81;84.34;97633.22;10327617;28;20622;-50
2023/12/07 08:10:03;;;;;;;;;;;;;;;4.00;84.58;97656.75;10328170;28;20063;-49
2023/12/07 08:15:02;;;;;;;65.40;33.17;;;;;;;4.04;84.78;97649.16;10326789;28;19920;-49
2023/12/07 08:20:01;;;;;;;69.78;32.70;;;;;;;4.20;84.30;97652.94;10327872;28;20476;-49
2023/12/07 08:25:00;;;;;;;70.68;33.00;;;;;;;4.09;84.05;97656.97;10327299;28;20151;-50
2023/12/07 08:29:59;;;;;;;59.97;29.98;;;;;;;4.01;83.93;97656.81;10327790;28;20030;-50
2023/12/07 08:34:58;;;;;;;123.97;58.13;;;;;;;3.73;83.77;97641.56;10326699;28;20585;-49
2023/12/07 08:39:57;;;;;;;61.67;28.75;;;;;;;3.37;84.37;97617.59;10326948;28;20033;-50
2023/12/07 08:44:56;;;;;;;68.28;30.25;;;;;;;3.52;85.04;97685.50;10327592;28;20597;-50
2023/12/07 08:49:55;;;;;;;59.35;26.60;;;;;;;3.09;85.58;97618.59;10326265;28;20120;-49
2023/12/07 08:54:54;;;;;;;62.22;28.83;;;;;;;3.47;86.09;97671.72;10325985;28;20056;-50
2023/12/07 08:59:54;;;;;;;41.92;21.45;;;;;;;3.48;85.98;97683.72;10326501;28;20041;-49
2023/12/07 09:04:53;;;;;;;41.90;21.15;;;;;;;3.25;85.52;97625.00;10325784;28;20128;-49
2023/12/07 09:09:52;;;;;;;36.33;19.52;;;;;;;3.52;86.08;97688.09;10326184;28;20116;-49
2023/12/07 09:14:51;;;;;;;37.60;19.92;;;;;;;3.37;85.52;97602.22;10325722;28;20073;-50
2023/12/07 09:19:50;;;;;;;35.05;17.70;;;;;;;3.99;85.28;97657.59;10324689;28;20136;-49
2023/12/07 09:24:49;;;;;;;33.38;18.05;;;;;;;3.36;83.27;97564.59;10324689;28;20116;-49
2023/12/07 09:29:48;;;;;;;44.13;21.88;;;;;;;4.00;84.45;97647.34;10325570;28;20029;-50
2023/12/07 09:34:47;;;;;;;31.23;16.80;;;;;;;3.87;82.92;97658.19;10325181;28;20125;-49
2023/12/07 09:39:46;;;;;;;40.58;23.75;;;;;;;3.83;84.02;97682.03;10324865;28;20115;-50
2023/12/07 09:44:45;;;;;;;39.28;21.00;;;;;;;3.82;84.47;97660.63;10323884;28;20091;-49
2023/12/07 09:49:45;;;;;;;35.45;18.30;;;;;;;3.73;84.34;97667.22;10324535;28;20534;-49
2023/12/07 09:54:44;;;;;;;;;;;;;;;3.68;84.59;97666.25;10323932;28;20061;-50
2023/12/07 09:59:43;;;;;;;27.33;15.38;;;;;;;3.40;84.52;97597.19;10323735;28;20019;-50
2023/12/07 10:04:42;;;;;;;38.83;19.20;;;;;;;3.73;84.72;97645.03;10323624;28;20416;-49
2023/12/07 10:09:41;;;;;;;27.85;15.35;;;;;;;3.76;84.95;97644.22;10325676;28;20120;-49
2023/12/07 10:14:40;;;;;;;28.92;15.55;;;;;;;4.01;85.24;97650.78;10331278;28;20053;-50
2023/12/07 10:19:39;;;;;;;24.75;12.75;;;;;;;4.02;84.39;97660.22;10330707;28;20124;-50
2023/12/07 10:24:38;;;;;;;24.63;13.32;;;;;;;3.99;84.57;97626.78;10328449;28;20108;-48
2023/12/07 10:29:37;;;;;;;24.33;13.80;;;;;;;4.17;83.56;97658.00;10331584;28;20135;-50
2023/12/07 10:34:36;;;;;;;27.10;13.68;;;;;;;3.85;84.87;97634.19;10329829;28;20041;-50
2023/12/07 10:39:35;;;;;;;24.23;13.85;;;;;;;3.83;84.14;97615.31;10331638;28;20021;-49
2023/12/07 10:44:40;;;;;;;31.85;16.90;;;;;;;3.96;84.01;97621.56;10329007;28;20116;-51
2023/12/07 10:49:43;;;;;;;27.92;17.30;;;;;;;4.03;83.66;97619.19;10329391;28;20516;-50
2023/12/07 10:54:56;;;;;;;27.77;16.38;;;;;;;4.43;82.97;97647.44;10332167;28;20087;-49
2023/12/07 10:59:57;;;;;;;35.13;18.77;;;;;;;4.39;82.73;97643.09;10330172;28;20116;-50
2023/12/07 11:04:57;;;;;;;40.22;24.23;;;;;;;4.39;83.19;97649.09;10330238;28;20056;-50
2023/12/07 11:10:05;;;;;;;26.42;14.73;;;;;;;4.42;82.96;97653.41;10331699;28;20100;-50
2023/12/07 11:15:05;;;;;;;26.80;16.38;;;;;;;4.25;82.83;97610.25;10329579;28;20053;-49
2023/12/07 11:20:05;;;;;;;26.45;15.55;;;;;;;4.20;82.06;97593.88;10328301;28;20132;-50
2023/12/07 11:25:04;;;;;;;35.72;22.23;;;;;;;4.11;82.12;97588.53;10329839;28;20095;-50
2023/12/07 11:30:04;;;;;;;34.17;22.52;;;;;;;4.53;82.56;97651.09;10326445;28;20120;-49
2023/12/07 11:35:04;;;;;;;29.67;19.42;;;;;;;4.04;82.06;97568.72;10327873;28;20813;-50
2023/12/07 11:40:04;;;;;;;35.35;24.60;;;;;;;4.08;82.86;97570.50;10329624;28;20057;-51
2023/12/07 11:45:04;;;;;;;41.80;25.42;;;;;;;4.39;83.05;97618.25;10325574;28;20429;-52
2023/12/07 11:50:03;;;;;;;29.70;20.10;;;;;;;4.46;82.60;97634.66;10328861;28;20445;-50
2023/12/07 11:55:02;;;;;;;42.88;28.83;;;;;;;4.39;83.30;97617.41;10326881;28;20113;-49
2023/12/07 12:00:02;;;;;;;52.65;31.83;;;;;;;4.56;83.19;97623.75;10329583;28;20124;-50
2023/12/07 12:05:03;;;;;;;35.22;22.58;;;;;;;4.65;82.81;97616.22;10329214;28;20492;-50
2023/12/07 12:10:03;;;;;;;24.15;15.40;;;;;;;4.72;82.04;97618.06;10328090;28;20112;-50
2023/12/07 12:15:03;;;;;;;40.83;26.63;;;;;;;4.74;81.61;97599.25;10328761;28;20060;-49
2023/12/07 12:20:03;;;;;;;22.73;13.73;;;;;;;4.90;81.92;97617.56;10328646;28;20069;-50
2023/12/07 12:25:04;;;;;;;20.27;14.05;;;;;;;3.24;79.98;97330.97;10326172;28;20132;-49
2023/12/07 12:30:04;;;;;;;18.58;13.40;;;;;;;4.85;79.39;97602.88;10324608;28;20104;-49
2023/12/07 12:35:04;;;;;;;18.60;10.55;;;;;;;5.05;80.31;97640.16;10325058;28;20057;-49
2023/12/07 12:40:06;;;;;;;;;;;;;;;5.04;78.80;97637.53;10326873;28;20060;-50
2023/12/07 12:45:08;;;;;;;18.73;12.13;;;;;;;4.53;78.98;97590.28;10323525;28;20443;-50
2023/12/07 12:50:07;;;;;;;19.58;12.60;;;;;;;4.70;79.78;97630.03;10326144;28;20073;-50
2023/12/07 12:55:10;;;;;;;18.05;12.65;;;;;;;4.41;80.49;97606.31;10327164;28;20113;-49
2023/12/07 13:00:09;;;;;;;28.73;19.02;;;;;;;4.54;80.17;97640.81;10327313;28;20505;-50
2023/12/07 13:05:08;;;;;;;23.65;16.92;;;;;;;3.21;81.30;97439.44;10321862;28;20144;-49
2023/12/07 13:10:08;;;;;;;20.83;14.32;;;;;;;4.15;81.87;97612.56;10326448;28;20025;-51
2023/12/07 13:15:08;;;;;;;13.48;8.07;;;;;;;4.15;81.78;97631.44;10326275;28;20052;-50
2023/12/07 13:20:11;;;;;;;21.05;14.25;;;;;;;4.31;82.20;97650.59;10325406;28;20120;-49
2023/12/07 13:25:12;;;;;;;27.02;18.02;;;;;;;4.52;82.72;97655.34;10325398;28;20053;-49
2023/12/07 13:30:12;;;;;;;30.58;20.17;;;;;;;4.46;82.55;97650.94;10326216;28;20065;-50
2023/12/07 13:35:11;;;;;;;27.13;17.83;;;;;;;4.44;82.21;97632.06;10324378;28;20530;-49
2023/12/07 13:40:11;;;;;;;26.38;16.27;;;;;;;4.57;81.81;97663.16;10325782;28;20053;-49
2023/12/07 13:45:11;;;;;;;21.77;14.57;;;;;;;4.41;81.40;97677.38;10324025;28;20056;-50
2023/12/07 13:50:11;;;;;;;;;;;;;;;4.12;82.61;97682.72;10325429;28;20095;-49
2023/12/07 13:55:10;;;;;;;;;;;;;;;3.78;84.26;97679.34;10325226;28;19971;-49
2023/12/07 14:00:13;;;;;;;9.68;6.70;;;;;;;3.05;85.64;97649.25;10324350;28;19919;-50
2023/12/07 14:05:11;;;;;;;9.68;6.50;;;;;;;2.80;86.41;97636.63;10324055;28;20141;-49
2023/12/07 14:10:11;;;;;;;16.63;11.55;;;;;;;2.66;87.45;97617.47;10324630;28;20048;-50
2023/12/07 14:15:10;;;;;;;15.65;10.13;;;;;;;3.00;87.09;97664.50;10324191;28;20121;-52
2023/12/07 14:20:10;;;;;;;;;;;;;;;3.41;87.63;97711.78;10323252;28;20138;-51
2023/12/07 14:25:10;;;;;;;32.00;21.83;;;;;;;3.35;87.98;97711.59;10324051;28;20778;-49
2023/12/07 14:30:10;;;;;;;12.45;8.35;;;;;;;2.76;86.75;97698.88;10323663;28;20061;-50
2023/12/07 14:35:09;;;;;;;10.40;8.27;;;;;;;2.41;87.83;97681.59;10321327;28;20053;-51
2023/12/07 14:40:08;;;;;;;10.32;7.97;;;;;;;2.69;87.78;97724.28;10321551;28;20142;-50
2023/12/07 14:45:07;;;;;;;;;;;;;;;2.70;87.51;97736.25;10320961;28;20707;-49
2023/12/07 14:50:06;;;;;;;18.42;12.90;;;;;;;2.60;87.59;97719.75;10322864;28;20383;-49
2023/12/07 14:55:06;;;;;;;22.20;13.60;;;;;;;2.37;87.98;97737.88;10323045;28;20116;-49
2023/12/07 15:00:05;;;;;;;24.00;15.38;;;;;;;2.51;88.22;97728.03;10331976;28;20111;-49
2023/12/07 15:05:05;;;;;;;20.33;12.88;;;;;;;2.80;87.57;97759.63;10329116;28;20116;-49
2023/12/07 15:10:05;;;;;;;19.20;14.65;;;;;;;2.87;87.55;97753.00;10328907;28;20063;-52
2023/12/07 15:15:05;;;;;;;11.75;7.65;;;;;;;2.76;87.18;97756.94;10329410;28;20540;-49
2023/12/07 15:20:05;;;;;;;13.85;9.10;;;;;;;2.68;87.19;97755.84;10328771;28;20069;-49
2023/12/07 15:25:05;;;;;;;13.88;9.43;;;;;;;2.44;87.62;97731.25;10328290;28;20467;-49
2023/12/07 15:30:07;;;;;;;10.10;7.47;;;;;;;2.49;87.48;97768.09;10328789;28;20091;-49
2023/12/07 15:35:06;;;;;;;10.73;7.40;;;;;;;2.09;88.38;97725.91;10328634;28;20065;-50
2023/12/07 15:40:09;;;;;;;9.45;6.97;;;;;;;1.25;88.72;97590.16;10328246;28;20472;-49
2023/12/07 15:45:09;;;;;;;11.63;7.07;;;;;;;2.38;88.51;97774.56;10328810;28;20480;-49
2023/12/07 15:50:11;;;;;;;10.27;8.23;;;;;;;1.67;88.41;97689.53;10329344;28;20116;-49
2023/12/07 15:55:09;;;;;;;15.90;10.93;;;;;;;2.37;88.26;97783.97;10328373;28;20108;-50
2023/12/07 16:00:10;;;;;;;22.17;17.23;;;;;;;2.25;88.22;97775.88;10328010;28;20022;-50
2023/12/07 16:05:09;;;;;;;37.35;22.27;;;;;;;1.22;88.20;97583.25;10329128;28;20453;-49
2023/12/07 16:10:08;;;;;;;19.77;12.98;;;;;;;1.30;87.87;97599.72;10324607;28;20562;-49
2023/12/07 16:15:08;;;;;;;15.50;10.95;;;;;;;2.12;88.32;97782.28;10321234;28;20112;-50
2023/12/07 16:20:10;;;;;;;12.10;8.50;;;;;;;2.11;87.90;97801.06;10322034;28;20128;-49
2023/12/07 16:25:09;;;;;;;10.55;6.20;;;;;;;1.67;88.61;97746.69;10322770;28;20133;-49
2023/12/07 16:30:12;;;;;;;6.22;4.65;;;;;;;1.87;88.34;97769.50;10323025;28;20116;-49
2023/12/07 16:35:12;;;;;;;6.35;5.05;;;;;;;1.97;88.15;97804.81;10322826;28;20545;-50
2023/12/07 16:40:11;;;;;;;12.93;9.40;;;;;;;2.14;88.05;97816.50;10322900;28;20536;-49
2023/12/07 16:45:12;;;;;;;10.50;7.80;;;;;;;1.88;88.28;97768.69;10323278;28;20140;-49
2023/12/07 16:50:11;;;;;;;14.65;10.07;;;;;;;1.97;87.87;97792.00;10327129;28;20076;-50
2023/12/07 16:55:10;;;;;;;12.50;9.52;;;;;;;2.16;87.99;97819.97;10325817;28;20056;-49
2023/12/07 17:00:10;;;;;;;16.92;12.20;;;;;;;2.08;88.35;97807.75;10327301;28;20033;-49
2023/12/07 17:05:09;;;;;;;17.33;11.90;;;;;;;2.30;88.06;97827.22;10326179;28;20324;-49
2023/12/07 17:10:08;;;;;;;26.25;16.58;;;;;;;1.94;87.86;97740.75;10326751;28;20025;-49
2023/12/07 17:15:08;;;;;;;16.73;12.05;;;;;;;2.43;87.62;97824.25;10326793;28;20527;-49
2023/12/07 17:20:08;;;;;;;15.90;10.77;;;;;;;2.45;87.78;97811.50;10325379;28;20136;-49
2023/12/07 17:25:07;;;;;;;12.68;7.78;;;;;;;2.53;87.07;97840.78;10325344;28;20461;-52
2023/12/07 17:30:06;;;;;;;12.70;8.88;;;;;;;2.06;87.18;97797.44;10324961;28;20119;-49
2023/12/07 17:35:05;;;;;;;;;;;;;;;2.42;87.55;97858.38;10325748;28;20071;-50
2023/12/07 17:40:05;;;;;;;24.48;15.30;;;;;;;2.01;87.32;97788.75;10324644;28;19912;-50
2023/12/07 17:45:06;;;;;;;18.75;13.77;;;;;;;1.87;86.72;97756.72;10323818;28;20071;-49
2023/12/07 17:50:05;;;;;;;18.15;11.48;;;;;;;2.41;87.02;97854.06;10325396;28;20061;-51
2023/12/07 17:55:04;;;;;;;14.77;10.93;;;;;;;2.35;86.79;97812.91;10325127;28;20057;-50
2023/12/07 18:00:05;;;;;;;18.95;13.23;;;;;;;2.63;86.86;97839.38;10325519;28;20913;-50
2023/12/07 18:05:06;;;;;;;16.25;10.40;;;;;;;2.76;86.32;97859.44;10324338;28;20072;-49
2023/12/07 18:10:05;;;;;;;14.63;10.27;;;;;;;2.72;86.08;97848.25;10324566;28;20053;-50
2023/12/07 18:15:04;;;;;;;;;;;;;;;2.89;86.52;97856.44;10323749;28;20119;-49
2023/12/07 18:20:05;;;;;;;52.67;29.63;;;;;;;2.96;85.86;97863.50;10324193;28;19956;-50
2023/12/07 18:25:05;;;;;;;37.47;22.70;;;;;;;2.91;85.29;97835.97;10324075;28;20081;-49
2023/12/07 18:30:06;;;;;;;34.65;22.88;;;;;;;2.79;85.20;97836.47;10325005;28;20518;-49
2023/12/07 18:35:05;;;;;;;24.27;15.32;;;;;;;3.04;85.00;97865.41;10331377;28;20060;-50
2023/12/07 18:40:05;;;;;;;30.48;19.23;;;;;;;2.76;85.25;97839.81;10330294;28;20064;-50
2023/12/07 18:45:04;;;;;;;20.13;14.52;;;;;;;2.93;84.85;97863.41;10331031;28;20125;-49
2023/12/07 18:50:04;;;;;;;23.13;16.58;;;;;;;2.90;85.09;97858.16;10330042;28;20154;-49
2023/12/07 18:55:03;;;;;;;20.15;14.57;;;;;;;1.06;84.60;97540.13;10330940;28;20068;-49
2023/12/07 19:00:03;;;;;;;29.17;19.80;;;;;;;2.51;85.06;97812.56;10331092;28;20075;-50
2023/12/07 19:05:02;;;;;;;;;;;;;;;2.81;85.46;97868.13;10329551;28;20448;-50
2023/12/07 19:10:01;;;;;;;14.73;10.57;;;;;;;2.66;85.59;97858.28;10329912;28;20435;-51
2023/12/07 19:15:00;;;;;;;19.65;13.40;;;;;;;2.66;85.95;97877.91;10328394;28;20065;-50
2023/12/07 19:19:59;;;;;;;16.45;11.52;;;;;;;2.28;86.12;97854.50;10328615;28;20611;-50
2023/12/07 19:25:00;;;;;;;12.80;9.45;;;;;;;2.25;86.35;97859.50;10328912;28;20488;-49
2023/12/07 19:29:59;;;;;;;22.77;15.88;;;;;;;2.34;86.67;97854.69;10328265;28;20061;-49
2023/12/07 19:34:58;;;;;;;15.05;10.85;;;;;;;2.51;86.50;97862.91;10328182;28;20041;-49
2023/12/07 19:39:57;;;;;;;31.73;17.90;;;;;;;2.70;85.75;97878.06;10327786;28;20152;-49
2023/12/07 19:44:56;;;;;;;;;;;;;;;2.76;85.79;97870.56;10329628;28;20065;-49
2023/12/07 19:49:55;;;;;;;19.48;14.18;;;;;;;2.53;84.77;97817.72;10328267;28;20016;-51
2023/12/07 19:54:55;;;;;;;18.75;12.35;;;;;;;2.74;83.59;97866.22;10328181;28;20033;-49
2023/12/07 19:59:53;;;;;;;21.95;16.15;;;;;;;2.19;85.10;97792.75;10327148;28;20088;-50
2023/12/07 20:04:52;;;;;;;19.25;14.48;;;;;;;2.38;85.64;97828.34;10328721;28;20043;-49
2023/12/07 20:09:53;;;;;;;13.75;9.98;;;;;;;2.53;84.91;97828.84;10329159;28;20124;-51
2023/12/07 20:14:52;;;;;;;40.47;26.42;;;;;;;2.38;85.04;97805.31;10328204;28;20060;-50
2023/12/07 20:19:51;;;;;;;37.47;24.23;;;;;;;2.65;85.41;97847.97;10327607;28;20041;-52
2023/12/07 20:24:50;;;;;;;17.15;12.50;;;;;;;2.71;84.65;97868.69;10328753;28;20048;-50
2023/12/07 20:29:49;;;;;;;25.45;17.77;;;;;;;2.71;85.27;97902.00;10328334;28;20043;-50
2023/12/07 20:34:49;;;;;;;23.08;16.20;;;;;;;2.68;84.92;97866.03;10325402;28;20049;-49
2023/12/07 20:39:48;;;;;;;27.63;19.58;;;;;;;2.35;85.02;97818.03;10328381;28;20064;-50
2023/12/07 20:44:47;;;;;;;25.92;18.15;;;;;;;2.67;85.05;97870.25;10326402;28;20033;-50
2023/12/07 20:49:46;;;;;;;24.75;17.20;;;;;;;2.71;85.38;97866.13;10325569;28;20038;-49
2023/12/07 20:54:45;;;;;;;15.65;11.77;;;;;;;2.23;84.40;97789.44;10326577;28;20292;-49
2023/12/07 20:59:44;;;;;;;22.00;14.52;;;;;;;2.72;84.75;97867.84;10327328;28;20124;-49
2023/12/07 21:04:43;;;;;;;24.90;16.30;;;;;;;2.75;84.90;97862.84;10327114;28;20072;-49
2023/12/07 21:09:42;;;;;;;23.30;15.73;;;;;;;2.62;84.43;97853.88;10327127;28;20095;-50
2023/12/07 21:14:41;;;;;;;;;;;;;;;2.66;85.61;97883.03;10326814;28;20065;-49
2023/12/07 21:19:40;;;;;;;21.85;14.55;;;;;;;2.56;85.23;97864.81;10326130;28;19975;-49
2023/12/07 21:24:39;;;;;;;;;;;;;;;2.72;85.73;97883.22;10326719;28;20067;-49
2023/12/07 21:29:40;;;;;;;19.90;12.98;;;;;;;2.53;84.60;97836.50;10325988;28;19964;-49
2023/12/07 21:34:42;;;;;;;23.10;15.45;;;;;;;2.31;84.54;97813.63;10325213;28;20116;-51
2023/12/07 21:39:42;;;;;;;24.13;14.63;;;;;;;2.14;84.45;97788.34;10326419;28;20060;-50
2023/12/07 21:44:41;;;;;;;17.48;12.43;;;;;;;2.36;84.74;97850.47;10324056;28;20067;-49
2023/12/07 21:49:40;;;;;;;17.27;11.02;;;;;;;2.46;84.29;97856.78;10325424;28;20065;-50
2023/12/07 21:54:39;;;;;;;27.98;18.05;;;;;;;2.61;84.44;97875.22;10325736;28;20120;-50
2023/12/07 21:59:38;;;;;;;23.65;16.33;;;;;;;2.58;84.70;97868.28;10325278;28;20033;-49
2023/12/07 22:04:37;;;;;;;26.77;18.30;;;;;;;2.67;84.29;97870.25;10325441;28;20528;-49
2023/12/07 22:09:38;;;;;;;40.28;24.02;;;;;;;2.92;84.37;97886.44;10334227;28;20473;-50
2023/12/07 22:14:39;;;;;;;55.53;34.38;;;;;;;2.89;84.29;97871.81;10330990;28;20065;-49
2023/12/07 22:19:38;;;;;;;25.15;17.73;;;;;;;2.91;83.94;97870.19;10333265;28;20084;-49
2023/12/07 22:24:37;;;;;;;15.07;8.90;;;;;;;2.75;82.51;97858.56;10333199;28;20096;-49
2023/12/07 22:29:36;;;;;;;29.65;15.90;;;;;;;2.70;83.15;97838.75;10332586;28;20095;-50
2023/12/07 22:34:35;;;;;;;79.65;39.28;;;;;;;3.03;83.34;97877.38;10333315;28;20110;-50
2023/12/07 22:39:34;;;;;;;44.90;25.15;;;;;;;2.88;83.01;97834.19;10331635;28;20120;-50
2023/12/07 22:44:36;;;;;;;41.78;22.55;;;;;;;3.07;83.30;97840.72;10331749;28;20112;-50
2023/12/07 22:49:35;;;;;;;60.85;31.42;;;;;;;3.21;83.03;97844.59;10331399;28;20129;-49
2023/12/07 22:54:35;;;;;;;28.27;17.55;;;;;;;3.09;82.53;97817.72;10331380;28;20064;-49
2023/12/07 22:59:33;;;;;;;;;;;;;;;3.36;82.53;97851.84;10333081;28;20073;-49
2023/12/07 23:04:32;;;;;;;28.98;18.55;;;;;;;3.33;81.99;97836.38;10330209;28;19960;-50
2023/12/07 23:09:31;;;;;;;34.30;20.63;;;;;;;3.33;82.30;97844.09;10332044;28;20120;-50